Time;durP1;ratioP1;P1;durP2;ratioP2;P2;SDS_P1;SDS_P2;PMS_P1;PMS_P2;Temp;Humidity;BMP_temperature;BMP_pressure;BME280_temperature;BME280_humidity;BME280_pressure;Samples;Min_cycle;Max_cycle;Signal;HPM_P1;HPM_P2
2023/07/28 00:02:25;;;;;;;;;2.40;2.40;;;;;;;;5053882;28;8891;-82
2023/07/28 00:04:52;;;;;;;;;3.20;3.20;;;;;;;;5052587;28;8867;-82
2023/07/28 00:07:20;;;;;;;;;6.00;5.00;;;;;;;;5053714;28;8870;-82
2023/07/28 00:09:47;;;;;;;;;3.40;3.40;;;;;;;;5053100;28;8905;-81
2023/07/28 00:12:14;;;;;;;;;3.60;3.60;;;;;;;;5051487;28;8881;-81
2023/07/28 00:14:41;;;;;;;;;1.60;1.60;;;;;;;;5050317;28;8842;-83
2023/07/28 00:17:09;;;;;;;;;4.60;4.00;;;;;;;;5050114;28;9753;-82
2023/07/28 00:19:38;;;;;;;;;3.20;3.00;;;;;;;;5049954;28;9654;-82
2023/07/28 00:22:05;;;;;;;;;4.60;4.60;;;;;;;;5049863;28;8870;-81
2023/07/28 00:24:32;;;;;;;;;2.80;2.80;;;;;;;;5050155;28;8847;-82
2023/07/28 00:26:59;;;;;;;;;2.00;2.00;;;;;;;;5050286;28;8959;-82
2023/07/28 00:29:27;;;;;;;;;3.60;3.60;;;;;;;;5049570;28;8836;-82
2023/07/28 00:31:54;;;;;;;;;3.40;3.40;;;;;;;;5049499;28;8795;-82
2023/07/28 00:34:22;;;;;;;;;4.00;4.00;;;;;;;;5049907;28;8847;-82
2023/07/28 00:36:50;;;;;;;;;4.20;4.20;;;;;;;;5049887;28;8878;-82
2023/07/28 00:39:18;;;;;;;;;4.40;2.80;;;;;;;;5049647;28;8898;-82
2023/07/28 00:41:46;;;;;;;;;3.20;3.20;;;;;;;;5049735;28;8859;-82
2023/07/28 00:44:17;;;;;;;;;3.80;3.80;;;;;;;;5049675;28;8875;-82
2023/07/28 00:46:47;;;;;;;;;4.40;4.40;;;;;;;;5050471;28;8844;-81
2023/07/28 00:49:15;;;;;;;;;3.80;3.20;;;;;;;;5052006;28;8882;-82
2023/07/28 00:51:44;;;;;;;;;2.40;2.40;;;;;;;;5049707;28;8867;-83
2023/07/28 00:54:14;;;;;;;;;5.60;3.80;;;;;;;;5049664;28;8859;-82
2023/07/28 00:56:41;;;;;;;;;2.80;2.80;;;;;;;;5052017;28;8859;-82
2023/07/28 00:59:08;;;;;;;;;4.20;4.20;;;;;;;;5054146;28;8956;-82
2023/07/28 01:01:35;;;;;;;;;3.40;3.40;;;;;;;;5053951;28;8922;-84
2023/07/28 01:04:03;;;;;;;;;5.40;3.80;;;;;;;;5056112;28;8859;-84
2023/07/28 01:06:36;;;;;;;;;3.00;3.00;;;;;;;;5055556;28;8863;-83
2023/07/28 01:09:06;;;;;;;;;2.40;2.40;;;;;;;;5055893;28;8928;-84
2023/07/28 01:11:35;;;;;;;;;3.80;3.80;;;;;;;;5055453;28;8827;-84
2023/07/28 01:14:03;;;;;;;;;3.60;2.00;;;;;;;;5054561;28;8850;-82
2023/07/28 01:16:30;;;;;;;;;3.80;3.80;;;;;;;;5053791;28;8859;-84
2023/07/28 01:18:57;;;;;;;;;2.00;2.00;;;;;;;;5054178;28;8938;-84
2023/07/28 01:21:29;;;;;;;;;3.00;3.00;;;;;;;;5053604;28;8823;-84
2023/07/28 01:24:02;;;;;;;;;2.20;2.20;;;;;;;;5054029;28;8977;-82
2023/07/28 01:26:36;;;;;;;;;2.40;2.40;;;;;;;;5055893;28;9705;-82
2023/07/28 01:29:04;;;;;;;;;3.60;3.60;;;;;;;;5055074;28;8951;-82
2023/07/28 01:31:31;;;;;;;;;3.80;2.00;;;;;;;;5053221;28;8869;-84
2023/07/28 01:33:59;;;;;;;;;2.20;2.20;;;;;;;;5053587;28;8875;-83
2023/07/28 01:36:26;;;;;;;;;3.80;2.00;;;;;;;;5054546;28;8858;-83
2023/07/28 01:38:53;;;;;;;;;3.20;3.20;;;;;;;;5054650;28;8855;-83
2023/07/28 01:41:21;;;;;;;;;3.00;3.00;;;;;;;;5055797;28;8986;-84
2023/07/28 01:43:50;;;;;;;;;2.80;2.80;;;;;;;;5055927;28;8942;-83
2023/07/28 01:46:17;;;;;;;;;2.60;2.60;;;;;;;;5057172;28;9001;-83
2023/07/28 01:48:44;;;;;;;;;2.60;2.60;;;;;;;;5056619;28;8965;-83
2023/07/28 01:51:14;;;;;;;;;3.00;3.00;;;;;;;;5054655;28;8859;-83
2023/07/28 01:53:42;;;;;;;;;2.00;2.00;;;;;;;;5053206;28;8850;-82
2023/07/28 01:56:09;;;;;;;;;1.60;1.60;;;;;;;;5053302;28;8883;-83
2023/07/28 01:58:36;;;;;;;;;3.00;3.00;;;;;;;;5053494;28;8973;-84
2023/07/28 02:01:05;;;;;;;;;2.20;1.80;;;;;;;;5053302;28;8771;-84
2023/07/28 02:03:32;;;;;;;;;1.80;1.80;;;;;;;;5057386;28;8889;-83
2023/07/28 02:06:00;;;;;;;;;3.40;2.40;;;;;;;;5055783;28;8912;-84
2023/07/28 02:08:27;;;;;;;;;3.00;3.00;;;;;;;;5052047;28;8867;-82
2023/07/28 02:10:55;;;;;;;;;1.00;1.00;;;;;;;;5052744;28;8974;-83
2023/07/28 02:13:22;;;;;;;;;3.00;3.00;;;;;;;;5052503;28;8847;-83
2023/07/28 02:15:49;;;;;;;;;2.60;2.60;;;;;;;;5052163;28;9016;-83
2023/07/28 02:18:18;;;;;;;;;1.80;1.80;;;;;;;;5052552;28;8905;-82
2023/07/28 02:20:48;;;;;;;;;3.20;1.20;;;;;;;;5052515;28;9651;-83
2023/07/28 02:23:15;;;;;;;;;2.60;2.60;;;;;;;;5052769;28;8989;-83
2023/07/28 02:25:45;;;;;;;;;2.80;2.80;;;;;;;;5052034;28;8851;-82
2023/07/28 02:28:13;;;;;;;;;2.40;2.40;;;;;;;;5051961;28;9006;-82
2023/07/28 02:30:40;;;;;;;;;2.40;2.40;;;;;;;;5052042;28;9620;-83
2023/07/28 02:33:07;;;;;;;;;2.40;2.40;;;;;;;;5052131;28;9006;-83
2023/07/28 02:35:36;;;;;;;;;3.40;3.00;;;;;;;;5052250;28;8855;-83
2023/07/28 02:38:03;;;;;;;;;1.80;1.80;;;;;;;;5052624;28;8847;-84
2023/07/28 02:40:30;;;;;;;;;3.00;3.00;;;;;;;;5056813;28;8875;-82
2023/07/28 02:42:58;;;;;;;;;1.00;1.00;;;;;;;;5056467;28;8866;-84
2023/07/28 02:45:25;;;;;;;;;2.00;2.00;;;;;;;;5054111;28;9590;-83
2023/07/28 02:47:55;;;;;;;;;1.80;1.80;;;;;;;;5054017;28;8942;-83
2023/07/28 02:50:23;;;;;;;;;2.80;2.80;;;;;;;;5053791;28;8954;-83
2023/07/28 02:52:51;;;;;;;;;3.00;3.00;;;;;;;;5052937;28;8998;-84
2023/07/28 02:55:19;;;;;;;;;2.20;2.20;;;;;;;;5051955;28;8924;-84
2023/07/28 02:57:46;;;;;;;;;2.40;2.00;;;;;;;;5052042;28;8982;-83
2023/07/28 03:00:15;;;;;;;;;3.40;3.40;;;;;;;;5051335;28;8863;-83
2023/07/28 03:02:43;;;;;;;;;2.40;2.40;;;;;;;;5051371;28;8968;-83
2023/07/28 03:05:10;;;;;;;;;6.20;3.00;;;;;;;;5052088;28;8889;-83
2023/07/28 03:07:37;;;;;;;;;3.00;2.40;;;;;;;;5052049;28;8847;-83
2023/07/28 03:10:07;;;;;;;;;2.60;2.60;;;;;;;;5051486;28;8851;-83
2023/07/28 03:12:34;;;;;;;;;1.40;1.40;;;;;;;;5051659;28;8994;-83
2023/07/28 03:15:02;;;;;;;;;2.80;2.80;;;;;;;;5051715;28;9455;-83
2023/07/28 03:17:29;;;;;;;;;2.00;2.00;;;;;;;;5053379;28;8869;-83
2023/07/28 03:20:02;;;;;;;;;2.60;2.60;;;;;;;;5055180;28;8843;-83
2023/07/28 03:22:30;;;;;;;;;2.40;2.40;;;;;;;;5057131;28;8850;-83
2023/07/28 03:24:57;;;;;;;;;2.00;2.00;;;;;;;;5056875;28;8870;-82
2023/07/28 03:27:26;;;;;;;;;2.00;2.00;;;;;;;;5055059;28;8843;-84
2023/07/28 03:29:56;;;;;;;;;1.00;1.00;;;;;;;;5054620;28;8839;-83
2023/07/28 03:32:23;;;;;;;;;2.00;2.00;;;;;;;;5051757;28;8783;-84
2023/07/28 03:34:51;;;;;;;;;1.80;1.80;;;;;;;;5051483;28;8867;-83
2023/07/28 03:37:21;;;;;;;;;1.80;1.80;;;;;;;;5051285;28;8881;-84
2023/07/28 03:39:48;;;;;;;;;1.80;1.80;;;;;;;;5051151;28;8936;-82
2023/07/28 03:42:16;;;;;;;;;3.00;2.40;;;;;;;;5049895;28;8855;-82
2023/07/28 03:44:44;;;;;;;;;2.00;2.00;;;;;;;;5051129;28;8865;-83
2023/07/28 03:47:12;;;;;;;;;1.00;1.00;;;;;;;;5049713;28;8869;-82
2023/07/28 03:49:39;;;;;;;;;2.00;2.00;;;;;;;;5050428;28;8873;-83
2023/07/28 03:52:07;;;;;;;;;2.80;2.80;;;;;;;;5050152;28;8862;-83
2023/07/28 03:54:34;;;;;;;;;1.80;1.80;;;;;;;;5051620;28;8975;-82
2023/07/28 03:57:02;;;;;;;;;1.00;1.00;;;;;;;;5053908;28;8916;-82
2023/07/28 03:59:29;;;;;;;;;1.00;1.00;;;;;;;;5050750;28;8847;-83
2023/07/28 04:01:57;;;;;;;;;0.00;0.00;;;;;;;;5049835;28;8922;-83
2023/07/28 04:04:24;;;;;;;;;1.00;1.00;;;;;;;;5050589;28;8854;-83
2023/07/28 04:06:53;;;;;;;;;3.60;2.00;;;;;;;;5050059;28;8870;-84
2023/07/28 04:09:21;;;;;;;;;0.80;0.80;;;;;;;;5051417;28;8965;-84
2023/07/28 04:11:48;;;;;;;;;0.60;0.60;;;;;;;;5050365;28;8873;-84
2023/07/28 04:14:16;;;;;;;;;1.20;1.20;;;;;;;;5050463;28;8827;-82
2023/07/28 04:16:43;;;;;;;;;1.40;1.40;;;;;;;;5050133;28;8974;-84
2023/07/28 04:19:14;;;;;;;;;2.00;2.00;;;;;;;;5050329;28;8874;-83
2023/07/28 04:21:43;;;;;;;;;2.80;0.80;;;;;;;;5051331;28;8883;-84
2023/07/28 04:24:11;;;;;;;;;1.00;1.00;;;;;;;;5051397;28;8859;-84
2023/07/28 04:26:38;;;;;;;;;2.00;2.00;;;;;;;;5052597;28;8851;-84
2023/07/28 04:29:05;;;;;;;;;1.00;1.00;;;;;;;;5050035;28;8858;-84
2023/07/28 04:31:33;;;;;;;;;1.00;1.00;;;;;;;;5050185;28;8814;-83
2023/07/28 04:34:00;;;;;;;;;0.60;0.60;;;;;;;;5053380;28;8847;-82
2023/07/28 04:36:29;;;;;;;;;0.00;0.00;;;;;;;;5051182;28;8832;-83
2023/07/28 04:38:56;;;;;;;;;1.00;1.00;;;;;;;;5050081;28;8997;-84
2023/07/28 04:41:23;;;;;;;;;1.60;1.60;;;;;;;;5050340;28;8862;-83
2023/07/28 04:43:50;;;;;;;;;1.40;1.40;;;;;;;;5049663;28;8878;-83
2023/07/28 04:46:18;;;;;;;;;0.80;0.80;;;;;;;;5050383;28;8861;-83
2023/07/28 04:48:45;;;;;;;;;1.80;1.80;;;;;;;;5050509;28;8929;-84
2023/07/28 04:51:13;;;;;;;;;1.80;1.80;;;;;;;;5050736;28;8878;-85
2023/07/28 04:53:41;;;;;;;;;1.00;1.00;;;;;;;;5050923;28;8995;-85
2023/07/28 04:56:09;;;;;;;;;1.60;1.60;;;;;;;;5051065;28;9610;-84
2023/07/28 04:58:36;;;;;;;;;0.80;0.80;;;;;;;;5052359;28;9637;-84
2023/07/28 05:01:04;;;;;;;;;1.80;1.80;;;;;;;;5052182;28;8799;-84
2023/07/28 05:03:31;;;;;;;;;0.20;0.20;;;;;;;;5052921;28;8965;-84
2023/07/28 05:05:58;;;;;;;;;1.60;1.60;;;;;;;;5052695;28;8835;-84
2023/07/28 05:08:26;;;;;;;;;1.00;1.00;;;;;;;;5052304;28;8851;-83
2023/07/28 05:10:54;;;;;;;;;0.80;0.80;;;;;;;;5051919;28;8953;-82
2023/07/28 05:13:22;;;;;;;;;2.00;1.40;;;;;;;;5050885;28;8978;-82
2023/07/28 05:15:52;;;;;;;;;1.80;1.80;;;;;;;;5049564;28;8884;-83
2023/07/28 05:18:22;;;;;;;;;0.80;0.80;;;;;;;;5049968;28;8867;-84
2023/07/28 05:20:51;;;;;;;;;0.80;0.80;;;;;;;;5049964;28;8924;-84
2023/07/28 05:23:19;;;;;;;;;0.80;0.80;;;;;;;;5049859;28;8855;-85
2023/07/28 05:25:46;;;;;;;;;1.00;1.00;;;;;;;;5049649;28;8949;-82
2023/07/28 05:28:15;;;;;;;;;1.80;1.80;;;;;;;;5048536;28;9633;-82
2023/07/28 05:30:42;;;;;;;;;1.80;1.00;;;;;;;;5048791;28;8906;-82
2023/07/28 05:33:09;;;;;;;;;1.00;1.00;;;;;;;;5049009;28;8913;-82
2023/07/28 05:35:36;;;;;;;;;2.00;2.00;;;;;;;;5048939;28;8844;-82
2023/07/28 05:38:04;;;;;;;;;2.80;2.80;;;;;;;;5048975;28;9002;-83
2023/07/28 05:40:31;;;;;;;;;1.00;1.00;;;;;;;;5049281;28;9001;-81
2023/07/28 05:42:59;;;;;;;;;3.40;2.00;;;;;;;;5049667;28;8882;-82
2023/07/28 05:45:27;;;;;;;;;1.40;1.40;;;;;;;;5052603;28;8851;-77
2023/07/28 05:47:55;;;;;;;;;2.20;2.20;;;;;;;;5051883;28;9680;-78
2023/07/28 05:50:22;;;;;;;;;2.60;2.60;;;;;;;;5058655;28;8977;-80
2023/07/28 05:52:52;;;;;;;;;2.80;2.80;;;;;;;;5054177;28;8989;-78
2023/07/28 05:55:20;;;;;;;;;3.20;3.20;;;;;;;;5052656;28;8843;-78
2023/07/28 05:57:47;;;;;;;;;2.60;2.60;;;;;;;;5053181;28;8863;-77
2023/07/28 06:00:15;;;;;;;;;9.40;9.40;;;;;;;;5052414;28;9013;-78
2023/07/28 06:02:45;;;;;;;;;15.20;13.40;;;;;;;;5053256;28;8974;-78
2023/07/28 06:05:12;;;;;;;;;6.20;6.20;;;;;;;;5053201;28;8865;-78
2023/07/28 06:07:39;;;;;;;;;4.80;4.80;;;;;;;;5053831;28;8862;-78
2023/07/28 06:10:08;;;;;;;;;3.00;3.00;;;;;;;;5053122;28;8962;-79
2023/07/28 06:12:36;;;;;;;;;2.00;2.00;;;;;;;;5052691;28;8882;-80
2023/07/28 06:15:04;;;;;;;;;3.00;3.00;;;;;;;;5052151;28;8843;-81
2023/07/28 06:17:31;;;;;;;;;4.00;4.00;;;;;;;;5051778;28;8916;-78
2023/07/28 06:20:04;;;;;;;;;5.40;4.00;;;;;;;;5051980;28;8854;-82
2023/07/28 06:22:31;;;;;;;;;2.00;2.00;;;;;;;;5052095;28;8859;-83
2023/07/28 06:24:58;;;;;;;;;2.00;2.00;;;;;;;;5052053;28;8986;-80
2023/07/28 06:27:25;;;;;;;;;2.20;2.20;;;;;;;;5052291;28;8902;-79
2023/07/28 06:29:53;;;;;;;;;3.80;2.00;;;;;;;;5051682;28;8851;-76
2023/07/28 06:32:23;;;;;;;;;2.80;2.80;;;;;;;;5051264;28;8792;-78
2023/07/28 06:34:50;;;;;;;;;1.80;1.80;;;;;;;;5052074;28;8883;-78
2023/07/28 06:37:25;;;;;;;;;2.20;2.20;;;;;;;;5052432;28;8855;-78
2023/07/28 06:39:54;;;;;;;;;2.80;2.40;;;;;;;;5053601;28;8855;-77
2023/07/28 06:42:25;;;;;;;;;1.80;1.80;;;;;;;;5053918;28;8855;-79
2023/07/28 06:44:52;;;;;;;;;2.00;2.00;;;;;;;;5053053;28;8835;-80
2023/07/28 06:47:19;;;;;;;;;2.00;2.00;;;;;;;;5052134;28;8867;-78
2023/07/28 06:49:47;;;;;;;;;1.80;1.80;;;;;;;;5051976;28;8885;-79
2023/07/28 06:52:17;;;;;;;;;2.40;2.40;;;;;;;;5051073;28;8859;-80
2023/07/28 06:54:49;;;;;;;;;0.80;0.80;;;;;;;;5051161;28;8889;-80
2023/07/28 06:57:17;;;;;;;;;3.00;3.00;;;;;;;;5051255;28;8851;-80
2023/07/28 06:59:44;;;;;;;;;3.80;3.80;;;;;;;;5051488;28;8929;-80
2023/07/28 07:02:11;;;;;;;;;1.40;1.40;;;;;;;;5050714;28;8793;-77
2023/07/28 07:04:48;;;;;;;;;1.20;1.20;;;;;;;;5051268;28;8856;-78
2023/07/28 07:07:15;;;;;;;;;1.00;1.00;;;;;;;;5054428;28;8847;-79
2023/07/28 07:09:42;;;;;;;;;2.80;2.80;;;;;;;;5051843;28;8847;-79
2023/07/28 07:12:16;;;;;;;;;2.40;2.40;;;;;;;;5050994;28;8835;-78
2023/07/28 07:14:46;;;;;;;;;4.00;2.00;;;;;;;;5050337;28;8935;-77
2023/07/28 07:17:14;;;;;;;;;2.80;2.80;;;;;;;;5050443;28;8877;-78
2023/07/28 07:19:41;;;;;;;;;2.00;2.00;;;;;;;;5051063;28;8893;-77
2023/07/28 07:22:08;;;;;;;;;3.00;3.00;;;;;;;;5050273;28;8859;-78
2023/07/28 07:24:35;;;;;;;;;2.00;2.00;;;;;;;;5050525;28;8863;-77
2023/07/28 07:27:03;;;;;;;;;1.80;1.80;;;;;;;;5050806;28;8839;-78
2023/07/28 07:29:31;;;;;;;;;3.00;1.00;;;;;;;;5049941;28;8870;-77
2023/07/28 07:31:58;;;;;;;;;3.00;2.00;;;;;;;;5049802;28;8813;-78
2023/07/28 07:34:27;;;;;;;;;2.00;2.00;;;;;;;;5050436;28;8867;-77
2023/07/28 07:36:57;;;;;;;;;1.40;1.40;;;;;;;;5050384;28;8839;-78
2023/07/28 07:39:27;;;;;;;;;3.40;3.40;;;;;;;;5049964;28;9614;-77
2023/07/28 07:41:55;;;;;;;;;1.60;1.60;;;;;;;;5050980;28;8855;-76
2023/07/28 07:44:22;;;;;;;;;3.00;3.00;;;;;;;;5052059;28;9032;-76
2023/07/28 07:46:51;;;;;;;;;15.80;15.80;;;;;;;;5050635;28;9614;-76
2023/07/28 07:49:18;;;;;;;;;0.20;0.20;;;;;;;;5050310;28;8874;-76
2023/07/28 07:51:45;;;;;;;;;184.75;164.00;;;;;;;;5050219;28;8981;-76
2023/07/28 07:54:15;;;;;;;;;13.20;10.60;;;;;;;;5049824;28;11685;-76
2023/07/28 07:56:42;;;;;;;;;6.40;6.20;;;;;;;;5049865;28;8978;-74
2023/07/28 07:59:10;;;;;;;;;1.20;1.20;;;;;;;;5049624;28;9873;-73
2023/07/28 08:01:37;;;;;;;;;2.60;2.20;;;;;;;;5049600;28;8792;-76
2023/07/28 08:04:06;;;;;;;;;2.80;2.80;;;;;;;;5050204;28;8989;-77
2023/07/28 08:06:33;;;;;;;;;3.00;3.00;;;;;;;;5049592;28;9636;-76
2023/07/28 08:09:01;;;;;;;;;2.00;2.00;;;;;;;;5050274;28;8865;-75
2023/07/28 08:11:28;;;;;;;;;2.00;2.00;;;;;;;;5051039;28;8890;-75
2023/07/28 08:13:55;;;;;;;;;3.80;2.80;;;;;;;;5052335;28;8870;-75
2023/07/28 08:16:23;;;;;;;;;2.00;2.00;;;;;;;;5052781;28;9602;-75
2023/07/28 08:18:51;;;;;;;;;1.80;1.80;;;;;;;;5052745;28;8851;-75
2023/07/28 08:21:19;;;;;;;;;1.00;1.00;;;;;;;;5052885;28;8870;-76
2023/07/28 08:23:47;;;;;;;;;1.80;1.80;;;;;;;;5051672;28;8859;-76
2023/07/28 08:26:14;;;;;;;;;2.00;2.00;;;;;;;;5050001;28;8852;-76
2023/07/28 08:28:41;;;;;;;;;2.00;2.00;;;;;;;;5049798;28;8944;-76
2023/07/28 08:31:08;;;;;;;;;2.40;1.60;;;;;;;;5049053;28;8814;-75
2023/07/28 08:33:35;;;;;;;;;1.60;1.60;;;;;;;;5049141;28;8987;-76
2023/07/28 08:36:03;;;;;;;;;1.40;1.40;;;;;;;;5049089;28;8855;-76
2023/07/28 08:38:31;;;;;;;;;1.80;1.80;;;;;;;;5049683;28;8953;-76
2023/07/28 08:40:59;;;;;;;;;1.80;1.80;;;;;;;;5049063;28;8871;-77
2023/07/28 08:43:27;;;;;;;;;2.80;2.80;;;;;;;;5049071;28;8871;-76
2023/07/28 08:45:55;;;;;;;;;2.00;2.00;;;;;;;;5049110;28;9622;-77
2023/07/28 08:48:23;;;;;;;;;1.80;1.80;;;;;;;;5049103;28;8870;-76
2023/07/28 08:50:50;;;;;;;;;1.40;1.40;;;;;;;;5048839;28;8941;-76
2023/07/28 08:53:18;;;;;;;;;0.80;0.80;;;;;;;;5049437;28;8863;-77
2023/07/28 08:55:48;;;;;;;;;1.00;1.00;;;;;;;;5049670;28;8866;-75
2023/07/28 08:58:16;;;;;;;;;1.80;1.80;;;;;;;;5049411;28;8847;-75
2023/07/28 09:00:44;;;;;;;;;1.40;1.40;;;;;;;;5048724;28;8805;-75
2023/07/28 09:03:12;;;;;;;;;1.00;1.00;;;;;;;;5048845;28;8851;-76
2023/07/28 09:05:40;;;;;;;;;0.80;0.80;;;;;;;;5049018;28;8871;-75
2023/07/28 09:08:08;;;;;;;;;1.80;1.80;;;;;;;;5049151;28;8858;-75
2023/07/28 09:10:48;;;;;;;;;1.80;1.80;;;;;;;;5051481;28;8856;-75
2023/07/28 09:13:17;;;;;;;;;1.00;1.00;;;;;;;;5051422;28;8869;-75
2023/07/28 09:15:44;;;;;;;;;1.80;1.80;;;;;;;;5049235;28;8842;-75
2023/07/28 09:18:12;;;;;;;;;1.60;1.60;;;;;;;;5052200;28;8936;-75
2023/07/28 09:20:41;;;;;;;;;0.40;0.40;;;;;;;;5054953;28;8882;-77
2023/07/28 09:23:09;;;;;;;;;2.00;2.00;;;;;;;;5053514;28;8875;-75
2023/07/28 09:25:38;;;;;;;;;0.00;0.00;;;;;;;;5052801;28;8931;-76
2023/07/28 09:28:06;;;;;;;;;2.20;2.20;;;;;;;;5052450;28;8978;-75
2023/07/28 09:30:47;;;;;;;;;0.60;0.60;;;;;;;;5052151;28;8775;-76
2023/07/28 09:33:14;;;;;;;;;1.20;1.20;;;;;;;;5052646;28;9010;-75
2023/07/28 09:35:53;;;;;;;;;0.40;0.40;;;;;;;;5052508;28;8871;-81
2023/07/28 09:38:21;;;;;;;;;1.00;1.00;;;;;;;;5052293;28;8839;-73
2023/07/28 09:40:48;;;;;;;;;0.80;0.80;;;;;;;;5052917;28;8859;-75
2023/07/28 09:43:20;;;;;;;;;0.00;0.00;;;;;;;;5053217;28;8893;-75
2023/07/28 09:45:47;;;;;;;;;1.80;1.80;;;;;;;;5053241;28;8855;-75
2023/07/28 09:48:15;;;;;;;;;1.20;1.20;;;;;;;;5053658;28;8928;-74
2023/07/28 09:50:45;;;;;;;;;0.80;0.80;;;;;;;;5054727;28;8854;-73
2023/07/28 09:53:15;;;;;;;;;0.80;0.80;;;;;;;;5053766;28;8993;-72
2023/07/28 09:55:43;;;;;;;;;1.00;1.00;;;;;;;;5054563;28;8847;-72
2023/07/28 09:58:12;;;;;;;;;1.20;0.80;;;;;;;;5053894;28;8894;-72
2023/07/28 10:00:41;;;;;;;;;0.20;0.20;;;;;;;;5052369;28;9536;-73
2023/07/28 10:03:10;;;;;;;;;0.00;0.00;;;;;;;;5051999;28;8847;-73
2023/07/28 10:05:38;;;;;;;;;0.80;0.80;;;;;;;;5052013;28;8855;-73
2023/07/28 10:08:06;;;;;;;;;0.80;0.80;;;;;;;;5051507;28;8862;-73
2023/07/28 10:10:33;;;;;;;;;0.20;0.20;;;;;;;;5051821;28;8909;-73
2023/07/28 10:13:01;;;;;;;;;0.80;0.80;;;;;;;;5051252;28;9001;-73
2023/07/28 10:15:32;;;;;;;;;0.60;0.60;;;;;;;;5051390;28;8872;-72
2023/07/28 10:18:01;;;;;;;;;0.80;0.80;;;;;;;;5051376;28;8855;-73
2023/07/28 10:20:29;;;;;;;;;0.00;0.00;;;;;;;;5051225;28;8855;-73
2023/07/28 10:23:07;;;;;;;;;0.20;0.20;;;;;;;;5051481;28;8854;-73
2023/07/28 10:25:38;;;;;;;;;1.20;1.20;;;;;;;;5051466;28;8913;-74
2023/07/28 10:28:06;;;;;;;;;0.00;0.00;;;;;;;;5050819;28;9602;-73
2023/07/28 10:30:38;;;;;;;;;0.80;0.80;;;;;;;;5050720;28;8772;-73
2023/07/28 10:33:06;;;;;;;;;0.80;0.80;;;;;;;;5051559;28;8871;-76
2023/07/28 10:35:34;;;;;;;;;1.00;1.00;;;;;;;;5051822;28;8842;-74
2023/07/28 10:38:28;;;;;;;;;0.00;0.00;;;;;;;;5051606;28;8847;-75
2023/07/28 10:41:09;;;;;;;;;0.20;0.20;;;;;;;;5046378;28;8843;-75
2023/07/28 10:43:37;;;;;;;;;1.80;0.80;;;;;;;;5051442;28;8878;-76
2023/07/28 10:46:07;;;;;;;;;0.80;0.80;;;;;;;;5051394;28;8880;-73
2023/07/28 10:48:37;;;;;;;;;0.00;0.00;;;;;;;;5051788;28;8989;-73
2023/07/28 10:51:04;;;;;;;;;0.00;0.00;;;;;;;;5051862;28;8865;-73
2023/07/28 10:53:33;;;;;;;;;0.00;0.00;;;;;;;;5051453;28;8851;-72
2023/07/28 10:56:01;;;;;;;;;0.00;0.00;;;;;;;;5050870;28;8879;-73
2023/07/28 10:58:28;;;;;;;;;0.00;0.00;;;;;;;;5051344;28;8861;-73
2023/07/28 11:00:55;;;;;;;;;0.00;0.00;;;;;;;;5050600;28;8784;-75
2023/07/28 11:03:24;;;;;;;;;0.40;0.40;;;;;;;;5050800;28;8978;-73
2023/07/28 11:05:54;;;;;;;;;0.00;0.00;;;;;;;;5050923;28;9002;-74
2023/07/28 11:08:21;;;;;;;;;0.00;0.00;;;;;;;;5051017;28;8882;-75
2023/07/28 11:10:48;;;;;;;;;0.00;0.00;;;;;;;;5050694;28;8997;-74
2023/07/28 11:13:16;;;;;;;;;1.00;0.80;;;;;;;;5050970;28;9650;-75
2023/07/28 11:15:43;;;;;;;;;0.80;0.80;;;;;;;;5050678;28;8851;-75
2023/07/28 11:18:11;;;;;;;;;0.80;0.80;;;;;;;;5050565;28;8867;-74
2023/07/28 11:20:38;;;;;;;;;0.40;0.40;;;;;;;;5051425;28;8839;-74
2023/07/28 11:23:08;;;;;;;;;0.60;0.60;;;;;;;;5051515;28;8866;-75
2023/07/28 11:25:35;;;;;;;;;0.80;0.80;;;;;;;;5053324;28;8839;-76
2023/07/28 11:28:05;;;;;;;;;0.60;0.60;;;;;;;;5053818;28;8981;-74
2023/07/28 11:30:33;;;;;;;;;0.80;0.80;;;;;;;;5053608;28;8775;-74
2023/07/28 11:33:00;;;;;;;;;0.00;0.00;;;;;;;;5052845;28;8885;-73
2023/07/28 11:35:28;;;;;;;;;0.20;0.20;;;;;;;;5050749;28;8892;-73
2023/07/28 11:37:57;;;;;;;;;0.20;0.20;;;;;;;;5050150;28;8892;-73
2023/07/28 11:40:26;;;;;;;;;0.20;0.20;;;;;;;;5049534;28;8973;-73
2023/07/28 11:42:55;;;;;;;;;1.20;0.80;;;;;;;;5049884;28;8873;-74
2023/07/28 11:45:26;;;;;;;;;0.80;0.80;;;;;;;;5050066;28;8863;-76
2023/07/28 11:47:56;;;;;;;;;1.40;1.40;;;;;;;;5049631;28;8973;-73
2023/07/28 11:50:25;;;;;;;;;0.00;0.00;;;;;;;;5049724;28;9614;-75
2023/07/28 11:52:56;;;;;;;;;0.20;0.20;;;;;;;;5049605;28;8855;-74
2023/07/28 11:55:25;;;;;;;;;0.80;0.80;;;;;;;;5049603;28;8843;-75
2023/07/28 11:57:56;;;;;;;;;0.80;0.80;;;;;;;;5049479;28;9731;-75
2023/07/28 12:00:30;;;;;;;;;0.80;0.80;;;;;;;;5049072;28;8847;-76
2023/07/28 12:03:09;;;;;;;;;1.00;1.00;;;;;;;;5049443;28;8851;-75
2023/07/28 12:05:37;;;;;;;;;1.40;1.00;;;;;;;;5049753;28;8985;-76
2023/07/28 12:08:05;;;;;;;;;2.00;2.00;;;;;;;;5049981;28;8867;-75
2023/07/28 12:10:33;;;;;;;;;1.80;1.80;;;;;;;;5049632;28;8843;-74
2023/07/28 12:13:05;;;;;;;;;2.60;2.60;;;;;;;;5048814;28;9009;-76
2023/07/28 12:15:33;;;;;;;;;2.80;2.80;;;;;;;;5049117;28;8847;-74
2023/07/28 12:18:11;;;;;;;;;1.80;1.80;;;;;;;;5049108;28;8852;-74
2023/07/28 12:20:39;;;;;;;;;2.80;1.60;;;;;;;;5049134;28;8863;-82
2023/07/28 12:23:07;;;;;;;;;2.80;2.80;;;;;;;;5049240;28;8869;-75
2023/07/28 12:25:37;;;;;;;;;1.60;1.60;;;;;;;;5049037;28;8869;-76
2023/07/28 12:28:04;;;;;;;;;2.80;2.80;;;;;;;;5049054;28;8883;-75
2023/07/28 12:30:32;;;;;;;;;1.20;1.20;;;;;;;;5049060;28;8776;-76
2023/07/28 12:33:00;;;;;;;;;1.80;1.80;;;;;;;;5049059;28;8977;-76
2023/07/28 12:35:30;;;;;;;;;2.40;2.40;;;;;;;;5049800;28;8851;-75
2023/07/28 12:37:59;;;;;;;;;1.00;1.00;;;;;;;;5049135;28;8872;-76
2023/07/28 12:40:27;;;;;;;;;1.60;1.60;;;;;;;;5049011;28;8855;-74
2023/07/28 12:42:55;;;;;;;;;0.80;0.80;;;;;;;;5048977;28;8855;-75
2023/07/28 12:45:25;;;;;;;;;2.00;2.00;;;;;;;;5049073;28;8858;-73
2023/07/28 12:47:53;;;;;;;;;1.80;1.80;;;;;;;;5049314;28;8982;-77
2023/07/28 12:50:20;;;;;;;;;1.80;1.80;;;;;;;;5049536;28;8851;-75
2023/07/28 12:52:48;;;;;;;;;4.40;2.80;;;;;;;;5052196;28;8840;-74
2023/07/28 12:55:16;;;;;;;;;0.80;0.80;;;;;;;;5053880;28;8893;-77
2023/07/28 12:57:43;;;;;;;;;1.40;1.40;;;;;;;;5053348;28;8889;-76
2023/07/28 13:00:13;;;;;;;;;1.60;1.60;;;;;;;;5053025;28;8865;-74
2023/07/28 13:02:41;;;;;;;;;3.00;3.00;;;;;;;;5054370;28;8993;-75
2023/07/28 13:05:10;;;;;;;;;1.00;1.00;;;;;;;;5054614;28;8874;-73
2023/07/28 13:07:37;;;;;;;;;0.20;0.20;;;;;;;;5055268;28;8969;-78
2023/07/28 13:10:07;;;;;;;;;1.80;0.60;;;;;;;;5054001;28;8977;-74
2023/07/28 13:12:34;;;;;;;;;0.40;0.40;;;;;;;;5053614;28;8857;-82
2023/07/28 13:15:01;;;;;;;;;1.80;1.80;;;;;;;;5052619;28;8858;-73
2023/07/28 13:17:30;;;;;;;;;1.40;1.00;;;;;;;;5052819;28;8873;-75
2023/07/28 13:19:58;;;;;;;;;0.00;0.00;;;;;;;;5052713;28;8977;-77
2023/07/28 13:22:28;;;;;;;;;1.00;1.00;;;;;;;;5055162;28;8862;-75
2023/07/28 13:24:55;;;;;;;;;0.80;0.80;;;;;;;;5053137;28;8893;-76
2023/07/28 13:27:22;;;;;;;;;0.80;0.80;;;;;;;;5052712;28;8867;-77
2023/07/28 13:29:49;;;;;;;;;1.40;0.20;;;;;;;;5052617;28;8854;-76
2023/07/28 13:32:18;;;;;;;;;1.20;0.00;;;;;;;;5052013;28;8795;-74
2023/07/28 13:34:47;;;;;;;;;0.00;0.00;;;;;;;;5052648;28;8867;-73
2023/07/28 13:37:14;;;;;;;;;2.20;0.80;;;;;;;;5052140;28;8902;-74
2023/07/28 13:39:42;;;;;;;;;0.00;0.00;;;;;;;;5052325;28;8855;-76
2023/07/28 13:42:09;;;;;;;;;0.00;0.00;;;;;;;;5051460;28;8881;-75
2023/07/28 13:44:36;;;;;;;;;0.00;0.00;;;;;;;;5052221;28;8932;-74
2023/07/28 13:47:05;;;;;;;;;0.00;0.00;;;;;;;;5052103;28;8863;-74
2023/07/28 13:49:35;;;;;;;;;0.20;0.00;;;;;;;;5052301;28;8973;-74
2023/07/28 13:52:04;;;;;;;;;0.00;0.00;;;;;;;;5051956;28;8867;-74
2023/07/28 13:54:31;;;;;;;;;0.00;0.00;;;;;;;;5052063;28;8855;-75
2023/07/28 13:56:58;;;;;;;;;0.00;0.00;;;;;;;;5051894;28;8851;-74
2023/07/28 13:59:26;;;;;;;;;0.00;0.00;;;;;;;;5052168;28;8855;-75
2023/07/28 14:01:53;;;;;;;;;0.00;0.00;;;;;;;;5043682;28;8842;-77
2023/07/28 14:04:20;;;;;;;;;0.00;0.00;;;;;;;;5051651;28;8863;-75
2023/07/28 14:06:47;;;;;;;;;0.00;0.00;;;;;;;;5051791;28;8908;-76
2023/07/28 14:09:16;;;;;;;;;0.00;0.00;;;;;;;;5050338;28;8843;-76
2023/07/28 14:11:43;;;;;;;;;0.00;0.00;;;;;;;;5052826;28;8843;-74
2023/07/28 14:14:10;;;;;;;;;0.00;0.00;;;;;;;;5051812;28;8987;-75
2023/07/28 14:16:37;;;;;;;;;0.00;0.00;;;;;;;;5051217;28;8870;-74
2023/07/28 14:19:05;;;;;;;;;0.00;0.00;;;;;;;;5051746;28;8859;-78
2023/07/28 14:21:32;;;;;;;;;0.00;0.00;;;;;;;;5044789;28;8995;-77
2023/07/28 14:23:59;;;;;;;;;0.00;0.00;;;;;;;;5031840;28;8968;-77
2023/07/28 14:26:28;;;;;;;;;0.00;0.00;;;;;;;;5031956;28;8964;-77
2023/07/28 14:28:55;;;;;;;;;0.00;0.00;;;;;;;;5031679;28;8857;-75
2023/07/28 14:31:22;;;;;;;;;0.00;0.00;;;;;;;;5038026;28;8819;-77
2023/07/28 14:33:50;;;;;;;;;0.00;0.00;;;;;;;;5053045;28;8893;-77
2023/07/28 14:36:18;;;;;;;;;0.00;0.00;;;;;;;;5041616;28;8853;-75
2023/07/28 14:38:45;;;;;;;;;0.00;0.00;;;;;;;;5034573;28;8858;-77
2023/07/28 14:41:12;;;;;;;;;0.00;0.00;;;;;;;;5043017;28;8912;-80
2023/07/28 14:43:44;;;;;;;;;0.00;0.00;;;;;;;;5055159;28;8847;-87
2023/07/28 14:46:13;;;;;;;;;0.00;0.00;;;;;;;;5053845;28;8875;-82
2023/07/28 14:48:40;;;;;;;;;0.00;0.00;;;;;;;;5051697;28;8888;-81
2023/07/28 14:51:08;;;;;;;;;0.00;0.00;;;;;;;;5049181;28;9603;-78
2023/07/28 14:53:36;;;;;;;;;0.00;0.00;;;;;;;;5043678;28;8950;-81
2023/07/28 14:56:04;;;;;;;;;0.00;0.00;;;;;;;;5035556;28;9230;-83
2023/07/28 14:58:32;;;;;;;;;0.00;0.00;;;;;;;;5049484;28;8847;-77
2023/07/28 15:01:04;;;;;;;;;0.40;0.00;;;;;;;;5038431;28;8833;-81
2023/07/28 15:03:35;;;;;;;;;0.00;0.00;;;;;;;;5051360;28;8882;-83